KSDY Airport (Sidney-Richland Rgnl) Information

FAA: SDY - ICAO: KSDY

KSDY Airport Location

State Montana
County Richland
City Sidney
KSDY Airport is 1 miles west of Sidney, MT.
Latitude 47-42-24.7000N
Longitude 104-11-33.2000W
Elevation 1,985ft

KSDY Airport METARs

METAR KSDY 240956Z AUTO 29007KT 10SM FEW120 04/M03 A3019 RMK AO2 SLP230 T00441033
Altimeter 30.19"
Temperature 4.4°C (39.9°F)
Wind 290° at 7KT
Clouds few at 12,000ft
Visibility 10.0mi
Time observed: 2021-09-24T09:56:00Z

KSDY Airport Details

Status Operational
Activation January 1951
Ownership Public
Usage Public
Chart BILLINGS
ATC on-site No
Beacon schedule sunset-sunrise
Beacon color clear green

KSDY Airport Contacts

Owner SIDNEY RICHLAND APT AUTHORITY
Owner address PO BOX 1050, 540 AIRPORT ROAD, SIDNEY, MT 59270
Owner phone 406-480-1820
Manager BOB SNYDER
Manager address 36078 CANON MILL ROAD, RONAN, MT 59864
Manager phone (406) 250-4824

KSDY Airport (Sidney-Richland Rgnl) Radio Frequencies

KSDY (Airport) Radio Frequencies

UNICOM 122.8
Common traffic advisory frequency (CTAF) 122.8